TUD weather

Tambacounda Airport
Tambacounda, Tambacounda Region, Senegal

Public forecast

Using degrees Celsius for public forecast. Weather courtesy of forecast.io.

METAR (pilot weather report)

Report is more than 2 hours old.

Retrieved 2019/03/26 16:00 UTC (2 hours ago):

GOTT 261600Z 28010KT 210V310 CAVOK 36/18 Q1009

TAF (pilot weather forecast)

Closest forecast is Osvaldo Vieira International Airport, 161.1 nm (298.3 km) SW. Retrieved 2019/03/26 18:55 UTC (0 seconds ago):

TAF GGOV 261700Z 2618/2718 32008KT CAVOK